createdAt,value
2023-03-11T00:46:18.988Z,41.96
2023-03-11T00:47:18.986Z,41.93
2023-03-11T00:48:19.058Z,41.96
2023-03-11T00:49:19.126Z,41.95
2023-03-11T00:50:19.935Z,41.87
2023-03-11T00:51:19.273Z,41.91
2023-03-11T00:52:19.354Z,41.93
2023-03-11T00:53:19.407Z,41.90
2023-03-11T00:54:19.476Z,41.93
2023-03-11T00:55:19.555Z,41.93
2023-03-11T00:56:19.618Z,41.93
2023-03-11T00:57:19.699Z,41.91
2023-03-11T00:58:19.760Z,41.88
2023-03-11T00:59:19.823Z,41.95
2023-03-11T01:00:19.891Z,41.88
2023-03-11T01:01:19.993Z,41.83
2023-03-11T01:02:20.023Z,41.85
2023-03-11T01:03:20.089Z,41.87
2023-03-11T01:04:20.193Z,41.89
2023-03-11T01:05:20.216Z,41.87
2023-03-11T01:06:20.282Z,41.85
2023-03-11T01:07:20.355Z,41.85
2023-03-11T01:08:20.435Z,41.90
2023-03-11T01:09:20.560Z,41.85
2023-03-11T01:10:20.563Z,41.81
2023-03-11T01:11:20.627Z,41.87
2023-03-11T01:12:20.709Z,41.88
2023-03-11T01:13:20.787Z,41.82
2023-03-11T01:14:20.840Z,41.83
2023-03-11T01:15:20.914Z,41.84
2023-03-11T01:16:21.043Z,41.85
2023-03-11T01:17:21.045Z,41.84
2023-03-11T01:18:21.120Z,41.84
2023-03-11T01:19:21.184Z,41.83
2023-03-11T01:20:21.250Z,41.82
2023-03-11T01:21:21.321Z,41.81
2023-03-11T01:22:21.394Z,41.87
2023-03-11T01:23:21.459Z,41.84
2023-03-11T01:24:21.528Z,41.82
2023-03-11T01:25:21.622Z,41.83
2023-03-11T01:26:21.690Z,41.76
2023-03-11T01:27:21.746Z,41.79
2023-03-11T01:28:21.811Z,41.79
2023-03-11T01:29:21.886Z,41.81
2023-03-11T01:30:21.956Z,41.78
2023-03-11T01:31:22.054Z,41.82
2023-03-11T01:32:22.129Z,41.76
2023-03-11T01:33:22.169Z,41.83
2023-03-11T01:34:22.947Z,41.83
2023-03-11T01:35:22.329Z,41.88
2023-03-11T01:36:22.446Z,41.81
2023-03-11T01:37:22.446Z,41.86
2023-03-11T01:38:22.542Z,41.79
2023-03-11T01:39:22.590Z,41.84
2023-03-11T01:40:22.656Z,41.79
2023-03-11T01:41:22.744Z,41.85
2023-03-11T01:42:22.795Z,41.89
2023-03-11T01:43:22.862Z,41.81
2023-03-11T01:44:22.941Z,41.85
2023-03-11T01:45:23.012Z,41.86
2023-03-11T01:46:23.147Z,41.82
2023-03-11T01:47:23.170Z,41.85
2023-03-11T01:48:23.229Z,41.87
2023-03-11T01:49:23.296Z,41.87
2023-03-11T01:50:23.364Z,41.81
2023-03-11T01:51:23.439Z,41.82
2023-03-11T01:52:23.544Z,41.76
2023-03-11T01:53:23.663Z,41.84
2023-03-11T02:54:28.970Z,41.79
2023-03-11T03:03:28.980Z,41.79
2023-03-11T03:04:29.095Z,41.79
2023-03-11T03:05:29.143Z,41.70
2023-03-11T03:06:29.217Z,41.81
2023-03-11T03:07:29.299Z,41.72
2023-03-11T03:08:29.369Z,41.75
2023-03-11T03:09:29.454Z,41.71
2023-03-11T03:10:29.534Z,41.76
2023-03-11T03:11:29.623Z,41.76
2023-03-11T03:12:29.688Z,41.72
2023-03-11T03:13:29.772Z,41.72
2023-03-11T03:14:29.852Z,41.76
2023-03-11T05:05:39.024Z,41.64
2023-03-11T05:06:39.023Z,41.68
2023-03-11T05:07:39.137Z,41.62
2023-03-11T05:08:39.210Z,41.58
2023-03-11T05:09:39.306Z,41.64
2023-03-11T05:10:39.397Z,41.62
2023-03-11T05:11:39.482Z,41.61
2023-03-11T05:12:39.573Z,41.58
2023-03-11T05:13:39.654Z,41.62
2023-03-11T05:14:39.750Z,41.64
2023-03-11T05:15:40.030Z,41.63
2023-03-11T05:16:39.993Z,41.67
2023-03-11T05:17:40.019Z,41.62
2023-03-11T05:18:40.097Z,41.62
2023-03-11T05:19:40.189Z,41.63
2023-03-11T05:20:40.270Z,41.65
2023-03-11T05:21:40.432Z,41.63
2023-03-11T05:22:40.433Z,41.64
2023-03-11T05:23:40.526Z,41.61
2023-03-11T05:24:40.604Z,41.61
2023-03-11T05:25:40.777Z,41.63
2023-03-11T05:26:40.805Z,41.59
2023-03-11T05:27:40.886Z,41.61
2023-03-11T05:28:40.957Z,41.62
2023-03-11T05:29:41.046Z,41.54
2023-03-11T05:30:41.130Z,41.58
2023-03-11T05:31:41.204Z,41.60
2023-03-11T05:32:41.335Z,41.53
2023-03-11T05:33:41.384Z,41.58
2023-03-11T05:34:41.444Z,41.59
2023-03-11T05:35:41.591Z,41.53
2023-03-11T05:36:42.023Z,41.49
2023-03-11T05:37:41.678Z,41.53
2023-03-11T05:38:41.798Z,41.50
2023-03-11T05:39:41.929Z,41.57
2023-03-11T05:40:41.946Z,41.59
2023-03-11T05:41:42.035Z,41.67
2023-03-11T05:42:42.131Z,41.55
2023-03-11T05:43:42.199Z,41.59
2023-03-11T05:44:42.299Z,41.58
2023-03-11T05:45:42.361Z,41.58
2023-03-11T05:46:42.495Z,41.60
2023-03-11T05:47:42.520Z,41.61
2023-03-11T05:48:42.607Z,41.56
2023-03-11T05:49:42.695Z,41.59
2023-03-11T05:50:42.783Z,41.58
2023-03-11T05:51:42.874Z,41.60
2023-03-11T05:52:42.943Z,41.55
2023-03-11T05:53:43.020Z,41.49
2023-03-11T05:54:43.153Z,41.60
2023-03-11T05:55:43.182Z,41.61
2023-03-11T05:56:43.260Z,41.65
2023-03-11T05:57:43.360Z,41.61
2023-03-11T05:58:43.422Z,41.54
2023-03-11T05:59:43.512Z,41.65
2023-03-11T06:00:43.589Z,41.60
2023-03-11T06:01:43.664Z,41.61
2023-03-11T06:02:43.744Z,41.55
2023-03-11T06:03:43.865Z,41.55
2023-03-11T06:04:43.978Z,41.51
2023-03-11T06:05:44.007Z,41.54
2023-03-11T06:06:44.115Z,41.55
2023-03-11T06:07:44.200Z,41.53
2023-03-11T06:08:45.031Z,41.52
2023-03-11T06:09:44.355Z,41.51
2023-03-11T06:10:44.444Z,41.49
2023-03-11T06:11:44.545Z,41.47
2023-03-11T06:12:44.604Z,41.49
2023-03-11T06:13:44.676Z,41.39
2023-03-11T06:14:44.759Z,41.41
2023-03-11T06:15:44.854Z,41.37
2023-03-11T06:16:44.949Z,41.33
2023-03-11T06:17:45.022Z,41.37
2023-03-11T06:18:45.122Z,41.36
2023-03-11T06:19:45.263Z,41.41
2023-03-11T06:20:45.333Z,41.42
2023-03-11T06:21:45.373Z,41.38
2023-03-11T06:22:45.459Z,41.44
2023-03-11T06:23:45.575Z,41.42
2023-03-11T06:24:45.701Z,41.37
2023-03-11T06:25:45.733Z,41.38
2023-03-11T06:26:45.829Z,41.39
2023-03-11T06:27:45.913Z,41.37
2023-03-11T06:28:46.004Z,41.34
2023-03-11T06:29:48.586Z,41.35
2023-03-11T06:30:46.315Z,41.34
2023-03-11T06:31:46.440Z,41.24
2023-03-11T06:32:46.515Z,41.27
2023-03-11T06:33:46.566Z,41.25
2023-03-11T06:34:46.664Z,41.27
2023-03-11T06:35:46.812Z,41.29
2023-03-11T06:36:46.837Z,41.27
2023-03-11T06:37:46.989Z,41.24
2023-03-11T06:38:47.013Z,41.22
2023-03-11T06:39:47.088Z,41.21
2023-03-11T06:40:47.255Z,41.25
2023-03-11T06:41:47.265Z,41.20
2023-03-11T06:42:47.328Z,41.17
2023-03-11T06:43:47.468Z,41.21
2023-03-11T06:44:47.495Z,41.29
2023-03-11T06:45:47.591Z,41.25
2023-03-11T06:46:47.671Z,41.27
2023-03-11T06:47:47.758Z,41.21
2023-03-11T06:48:47.917Z,41.27
2023-03-11T06:49:47.937Z,41.23
2023-03-11T06:50:48.516Z,41.22
2023-03-11T06:51:48.089Z,41.25
2023-03-11T06:52:48.183Z,41.31
2023-03-11T06:53:48.257Z,41.25
2023-03-11T06:54:48.323Z,41.15
2023-03-11T06:55:48.411Z,41.16
2023-03-11T06:56:48.486Z,41.21
2023-03-11T06:57:48.573Z,41.27
2023-03-11T06:58:48.656Z,41.21
2023-03-11T06:59:48.740Z,41.20
2023-03-11T07:00:48.837Z,41.12
2023-03-11T07:01:48.889Z,41.18
2023-03-11T07:02:48.974Z,41.07
2023-03-11T07:03:49.100Z,41.18
2023-03-11T07:04:49.150Z,41.11
2023-03-11T07:05:49.224Z,41.15
2023-03-11T07:06:49.319Z,41.18
2023-03-11T07:07:49.397Z,41.10
2023-03-11T07:08:49.483Z,41.16
2023-03-11T07:09:49.562Z,41.07
2023-03-11T07:10:49.652Z,41.14
2023-03-11T07:11:49.740Z,41.05
2023-03-11T07:12:49.824Z,41.16
2023-03-11T07:13:49.892Z,41.11
2023-03-11T07:14:49.980Z,41.11
2023-03-11T07:15:50.147Z,41.09
2023-03-11T07:16:50.280Z,41.07
2023-03-11T07:17:50.249Z,41.06
2023-03-11T07:18:50.342Z,41.08
2023-03-11T07:19:50.418Z,41.11
2023-03-11T07:20:50.505Z,41.11
2023-03-11T07:21:50.675Z,41.10
2023-03-11T07:22:50.679Z,41.11
2023-03-11T07:23:50.770Z,41.16
2023-03-11T07:24:50.863Z,41.07
2023-03-11T07:25:50.942Z,41.12
2023-03-11T07:26:51.046Z,41.11
2023-03-11T07:27:51.142Z,41.13
2023-03-11T07:28:51.213Z,41.15
2023-03-11T07:29:51.303Z,41.18
2023-03-11T07:30:51.398Z,41.11
2023-03-11T07:31:51.533Z,41.15
2023-03-11T07:32:51.607Z,41.09
2023-03-11T07:33:51.652Z,41.07
2023-03-11T07:34:51.751Z,41.11
2023-03-11T07:35:51.877Z,41.16
2023-03-11T07:36:51.989Z,41.15
2023-03-11T07:37:52.014Z,41.11
2023-03-11T07:38:52.100Z,41.17
2023-03-11T07:39:52.252Z,41.17
2023-03-11T07:40:52.266Z,41.09
2023-03-11T07:41:52.341Z,41.11
2023-03-11T07:42:52.435Z,41.13
2023-03-11T07:43:52.519Z,41.09
2023-03-11T07:44:52.708Z,41.07
2023-03-11T07:45:52.722Z,41.09
2023-03-11T07:46:52.822Z,41.09
2023-03-11T07:47:52.900Z,41.13
2023-03-11T07:48:52.977Z,41.14
2023-03-11T07:49:53.071Z,41.11
2023-03-11T07:50:53.154Z,41.10
2023-03-11T07:51:53.249Z,41.13
2023-03-11T07:52:53.350Z,41.14
2023-03-11T07:53:53.450Z,41.10
2023-03-11T07:54:53.532Z,41.20
2023-03-11T07:55:53.626Z,41.17
2023-03-11T07:56:53.703Z,41.16
2023-03-11T07:57:53.804Z,41.14
2023-03-11T07:58:53.903Z,41.10
2023-03-11T07:59:53.985Z,41.12
2023-03-11T08:00:54.074Z,41.15
2023-03-11T08:01:54.162Z,41.10
2023-03-11T08:02:54.250Z,41.17
2023-03-11T08:03:54.379Z,41.06
2023-03-11T08:04:54.411Z,41.03
2023-03-11T08:05:54.499Z,41.04
2023-03-11T08:06:54.599Z,41.00
2023-03-11T08:07:54.683Z,40.99
2023-03-11T08:08:54.763Z,41.03
2023-03-11T08:09:54.846Z,40.99
2023-03-11T08:10:54.946Z,40.97
2023-03-11T08:54:58.961Z,40.93
2023-03-11T08:55:59.058Z,40.85
2023-03-11T08:56:59.157Z,40.99
2023-03-11T08:57:59.227Z,40.92
2023-03-11T08:58:59.327Z,40.95
2023-03-11T08:59:59.381Z,40.95
2023-03-11T09:00:59.443Z,40.91
2023-03-11T09:01:59.539Z,40.95
2023-03-11T09:02:59.636Z,41.00
2023-03-11T09:03:59.725Z,40.99
2023-03-11T09:05:59.900Z,41.00
2023-03-11T10:49:09.116Z,40.82
2023-03-11T10:54:08.974Z,40.83
2023-03-11T10:55:09.056Z,40.92
2023-03-11T10:56:09.120Z,40.91
2023-03-11T10:57:09.196Z,40.87
2023-03-11T10:58:09.293Z,40.87
2023-03-11T10:59:09.347Z,40.84
2023-03-11T11:00:09.425Z,40.98
2023-03-11T11:01:09.524Z,40.91
2023-03-11T11:02:09.586Z,40.90
2023-03-11T11:03:09.625Z,40.92
2023-03-11T11:04:09.755Z,40.93
2023-03-11T11:05:09.804Z,40.90
2023-03-11T11:06:09.880Z,40.86
2023-03-11T11:07:09.952Z,40.84
2023-03-11T11:08:10.019Z,40.88
2023-03-11T11:09:10.077Z,40.87
2023-03-11T11:10:10.133Z,40.91
2023-03-11T11:11:10.194Z,40.95
2023-03-11T11:12:10.267Z,40.89
2023-03-11T11:13:10.335Z,40.82
2023-03-11T11:14:10.435Z,40.88
2023-03-11T11:15:10.451Z,40.90
2023-03-11T11:16:10.521Z,40.90
2023-03-11T11:17:10.519Z,40.88
2023-03-11T11:18:10.561Z,40.91
2023-03-11T11:19:10.619Z,40.94
2023-03-11T11:20:10.693Z,40.89
2023-03-11T11:21:10.769Z,40.92
2023-03-11T11:22:10.840Z,40.93
2023-03-11T11:23:10.917Z,40.92
2023-03-11T11:24:11.003Z,40.88
2023-03-11T11:25:11.141Z,40.91
2023-03-11T11:26:11.119Z,40.93
2023-03-11T11:27:11.250Z,40.92
2023-03-11T11:28:11.256Z,40.87
2023-03-11T11:29:11.332Z,40.94
2023-03-11T11:30:11.413Z,40.97
2023-03-11T11:31:11.524Z,40.99
2023-03-11T11:32:11.571Z,40.99
2023-03-11T13:37:14.396Z,40.84
2023-03-11T13:38:14.446Z,40.88
2023-03-11T13:39:14.485Z,40.82
2023-03-11T13:40:14.585Z,40.87
2023-03-11T13:41:14.542Z,40.83
2023-03-11T13:42:14.571Z,40.95
2023-03-11T13:43:14.597Z,40.86
2023-03-11T13:44:14.612Z,40.91
2023-03-11T13:45:14.649Z,40.88
2023-03-11T13:46:14.746Z,40.88
2023-03-11T13:47:14.733Z,40.89
2023-03-11T13:48:14.806Z,40.85
2023-03-11T13:49:14.783Z,40.84
2023-03-11T13:50:14.809Z,40.82
2023-03-11T13:51:14.815Z,40.83
2023-03-11T13:52:14.931Z,40.86
2023-03-11T13:53:14.861Z,40.89
2023-03-11T13:54:14.889Z,40.87
2023-03-11T13:55:14.918Z,40.86
2023-03-11T13:56:14.929Z,40.83
2023-03-11T13:57:14.958Z,40.79
2023-03-11T13:58:14.990Z,40.76
2023-03-11T13:59:15.024Z,40.83
2023-03-11T14:00:15.879Z,40.78
2023-03-11T14:01:15.092Z,40.82
2023-03-11T14:02:15.082Z,40.81
2023-03-11T14:03:15.125Z,40.76
2023-03-11T14:04:15.180Z,40.79
2023-03-11T14:05:15.171Z,40.79
2023-03-11T14:06:16.909Z,40.82
2023-03-11T14:07:15.274Z,40.79
2023-03-11T14:08:15.236Z,40.81
2023-03-11T14:09:15.248Z,40.77
2023-03-11T14:10:15.269Z,40.74
2023-03-11T14:11:15.356Z,40.75
2023-03-11T14:12:16.952Z,40.83
2023-03-11T14:13:15.308Z,40.82
2023-03-11T14:14:15.311Z,40.84
2023-03-11T14:15:15.346Z,40.83
2023-03-11T14:16:15.377Z,40.80
2023-03-11T14:17:16.184Z,40.81
2023-03-11T14:18:15.397Z,40.83
2023-03-11T14:19:16.230Z,40.78
2023-03-11T14:20:15.482Z,40.76
2023-03-11T14:21:15.461Z,40.74
2023-03-11T14:22:15.441Z,40.70
2023-03-11T14:23:15.453Z,40.81
2023-03-11T14:24:15.466Z,40.78
2023-03-11T14:25:15.487Z,40.83
2023-03-11T14:26:15.496Z,40.79
2023-03-11T14:27:15.526Z,40.78
2023-03-11T14:28:15.543Z,40.80
2023-03-11T14:29:16.172Z,40.70
2023-03-11T14:30:15.565Z,40.71
2023-03-11T14:31:15.595Z,40.70
2023-03-11T14:32:15.693Z,40.68
2023-03-11T14:33:15.625Z,40.64
2023-03-11T14:34:15.655Z,40.70
2023-03-11T14:35:15.668Z,40.60
2023-03-11T14:36:15.758Z,40.75
2023-03-11T14:37:15.676Z,40.62
2023-03-11T14:38:15.706Z,40.68
2023-03-11T14:39:15.710Z,40.68
2023-03-11T14:40:15.735Z,40.66
2023-03-11T14:41:15.749Z,40.70
2023-03-11T14:42:15.782Z,40.70
2023-03-11T14:43:16.687Z,40.60
2023-03-11T14:44:15.816Z,40.70
2023-03-11T14:45:15.823Z,40.70
2023-03-11T14:46:15.875Z,40.75
2023-03-11T14:47:15.863Z,40.75
2023-03-11T14:48:15.875Z,40.71
2023-03-11T14:49:15.987Z,40.72
2023-03-11T14:50:15.926Z,40.62
2023-03-11T14:51:15.941Z,40.65
2023-03-11T14:52:15.960Z,40.65
2023-03-11T14:53:15.998Z,40.66
2023-03-11T14:54:15.996Z,40.70
2023-03-11T14:55:16.021Z,40.62
2023-03-11T14:56:16.037Z,40.66
2023-03-11T14:57:16.059Z,40.64
2023-03-11T14:58:16.193Z,40.65
2023-03-11T14:59:16.094Z,40.62
2023-03-11T15:00:16.088Z,40.62
2023-03-11T15:01:16.130Z,40.56
2023-03-11T15:02:16.224Z,40.54
2023-03-11T15:03:16.695Z,40.63
2023-03-11T15:04:16.212Z,40.57
2023-03-11T15:05:16.178Z,40.55
2023-03-11T15:06:16.189Z,40.54
2023-03-11T15:07:16.226Z,40.54
2023-03-11T15:08:16.235Z,40.59
2023-03-11T15:09:17.175Z,40.54
2023-03-11T15:10:16.278Z,40.61
2023-03-11T15:11:16.314Z,40.61
2023-03-11T15:12:16.307Z,40.69
2023-03-11T15:13:16.317Z,40.65
2023-03-11T15:14:16.351Z,40.57
2023-03-11T15:15:16.382Z,40.56
2023-03-11T15:16:17.225Z,40.60
2023-03-11T15:17:32.833Z,40.62
2023-03-11T17:10:18.942Z,40.41
2023-03-11T17:11:18.957Z,40.46
2023-03-11T17:12:19.128Z,40.42
2023-03-11T17:13:19.299Z,40.47
2023-03-11T17:14:19.026Z,40.43
2023-03-11T17:15:19.056Z,40.37
2023-03-11T17:16:19.119Z,40.48
2023-03-11T17:17:19.095Z,40.41
2023-03-11T17:18:19.102Z,40.41
2023-03-11T17:19:19.729Z,40.48
2023-03-11T17:20:21.510Z,40.44
2023-03-11T17:21:19.285Z,40.43
2023-03-11T17:22:19.323Z,40.47
2023-03-11T17:23:19.342Z,40.50
2023-03-11T17:24:19.376Z,40.46
2023-03-11T17:25:19.397Z,40.37
2023-03-11T17:26:19.414Z,40.39
2023-03-11T17:27:19.436Z,40.44
2023-03-11T17:28:19.463Z,40.45
2023-03-11T17:29:19.483Z,40.41
2023-03-11T17:30:34.135Z,40.39
2023-03-11T17:31:20.642Z,40.39
2023-03-11T17:32:19.583Z,40.41
2023-03-11T17:33:19.552Z,40.43
2023-03-11T17:34:19.564Z,40.41
2023-03-11T17:35:19.662Z,40.46
2023-03-11T17:36:19.590Z,40.43
2023-03-11T17:37:19.607Z,40.45
2023-03-11T17:38:19.610Z,40.43
2023-03-11T17:39:19.635Z,40.38
2023-03-11T17:40:19.639Z,40.42
2023-03-11T17:41:19.744Z,40.34
2023-03-11T17:42:19.682Z,40.36
2023-03-11T17:43:19.702Z,40.41
2023-03-11T17:44:19.717Z,40.38
2023-03-11T17:45:19.743Z,40.39
2023-03-11T17:46:20.795Z,40.41
2023-03-11T17:47:20.785Z,40.41
2023-03-11T17:48:19.771Z,40.40
2023-03-11T17:49:19.790Z,40.33
2023-03-11T17:50:19.820Z,40.32
2023-03-11T17:51:19.898Z,40.39
2023-03-11T17:52:19.839Z,40.34
2023-03-11T17:53:19.856Z,40.34
2023-03-11T17:54:19.881Z,40.39
2023-03-11T17:55:19.883Z,40.29
2023-03-11T17:56:19.903Z,40.37
2023-03-11T17:57:19.922Z,40.33
2023-03-11T17:58:19.931Z,40.38
2023-03-11T17:59:20.014Z,40.34
2023-03-11T18:00:19.958Z,40.35
2023-03-11T18:01:19.973Z,40.32
2023-03-11T18:02:20.009Z,40.26
2023-03-11T18:03:20.021Z,40.28
2023-03-11T18:04:20.075Z,40.25
2023-03-11T18:05:20.071Z,40.33
2023-03-11T18:06:20.735Z,40.28
2023-03-11T18:07:20.106Z,40.22
2023-03-11T18:08:20.141Z,40.30
2023-03-11T18:09:20.150Z,40.28
2023-03-11T18:10:20.223Z,40.19
2023-03-11T18:11:20.198Z,40.23
2023-03-11T18:12:20.227Z,40.30
2023-03-11T18:13:21.232Z,40.19
2023-03-11T18:14:20.274Z,40.19
2023-03-11T18:15:20.309Z,40.27
2023-03-11T18:16:20.352Z,40.24
2023-03-11T18:17:20.736Z,40.30
2023-03-11T18:18:20.364Z,40.28
2023-03-11T18:19:20.463Z,40.20
2023-03-11T18:20:20.447Z,40.18
2023-03-11T18:21:20.452Z,40.19
2023-03-11T18:22:20.471Z,40.14
2023-03-11T18:23:20.509Z,40.13
2023-03-11T18:24:20.534Z,40.09
2023-03-11T18:25:20.554Z,40.10
2023-03-11T18:26:20.569Z,40.11
2023-03-11T18:27:20.605Z,40.10
2023-03-11T18:28:21.250Z,40.06
2023-03-11T18:29:20.668Z,40.06
2023-03-11T18:30:20.694Z,40.06
2023-03-11T18:31:20.744Z,40.10
2023-03-11T18:32:20.841Z,40.11
2023-03-11T18:33:20.754Z,40.07
2023-03-11T18:34:21.734Z,40.08
2023-03-11T18:35:20.806Z,40.10
2023-03-11T18:36:20.827Z,40.07
2023-03-11T18:37:20.856Z,40.07
2023-03-11T18:38:20.879Z,40.07
2023-03-11T18:39:20.896Z,39.99
2023-03-11T18:40:20.925Z,40.03
2023-03-11T18:41:20.998Z,39.99
2023-03-11T18:42:20.975Z,40.02
2023-03-11T18:43:21.007Z,39.98
2023-03-11T18:44:21.039Z,40.02
2023-03-11T18:45:21.055Z,40.02
2023-03-11T18:46:21.826Z,40.01
2023-03-11T18:47:21.115Z,40.01
2023-03-11T18:48:21.142Z,39.97
2023-03-11T18:49:21.185Z,39.99
2023-03-11T18:50:21.188Z,39.99
2023-03-11T18:51:21.280Z,39.92
2023-03-11T18:52:21.245Z,39.95
2023-03-11T18:53:21.261Z,39.94
2023-03-11T18:54:21.294Z,39.96
2023-03-11T18:55:21.315Z,39.96
2023-03-11T18:56:21.343Z,39.98
2023-03-11T18:57:21.361Z,39.96
2023-03-11T18:58:21.400Z,39.96
2023-03-11T18:59:21.418Z,39.92
2023-03-11T19:00:21.453Z,39.93
2023-03-11T19:01:21.624Z,39.94
2023-03-11T19:02:21.498Z,39.94
2023-03-11T19:03:21.520Z,39.96
2023-03-11T19:04:21.536Z,39.92
2023-03-11T19:05:21.690Z,39.87
2023-03-11T19:06:21.593Z,39.90
2023-03-11T19:07:21.620Z,39.90
2023-03-11T19:08:21.639Z,39.88
2023-03-11T19:09:21.670Z,39.88
2023-03-11T19:10:21.689Z,39.93
2023-03-11T19:11:21.725Z,39.83
2023-03-11T19:12:21.741Z,39.93
2023-03-11T19:13:21.758Z,39.85
2023-03-11T19:14:21.782Z,39.84
2023-03-11T19:15:21.806Z,39.89
2023-03-11T19:16:21.913Z,39.85
2023-03-11T19:17:21.848Z,39.85
2023-03-11T19:18:21.879Z,39.74
2023-03-11T19:19:21.902Z,39.83
2023-03-11T19:20:21.923Z,39.76
2023-03-11T19:21:21.939Z,39.80
2023-03-11T19:22:21.978Z,39.81
2023-03-11T19:23:21.989Z,39.80
2023-03-11T19:24:22.011Z,39.82
2023-03-11T19:25:22.028Z,39.80
2023-03-11T19:26:30.747Z,39.82
2023-03-11T19:27:23.074Z,39.78
2023-03-11T19:28:22.067Z,39.72
2023-03-11T19:29:22.083Z,39.73
2023-03-11T19:30:22.774Z,39.75
2023-03-11T19:31:22.194Z,39.76
2023-03-11T19:32:22.138Z,39.79
2023-03-11T19:33:22.263Z,39.81
2023-03-11T19:34:22.136Z,39.79
2023-03-11T19:35:22.143Z,39.75
2023-03-11T19:36:22.166Z,39.75
2023-03-11T19:37:22.176Z,39.79
2023-03-11T19:38:22.197Z,39.75
2023-03-11T19:39:22.218Z,39.76
2023-03-11T19:40:22.208Z,39.75
2023-03-11T19:41:22.233Z,39.75
2023-03-11T19:42:22.269Z,39.70
2023-03-11T19:43:22.271Z,39.71
2023-03-11T19:44:22.297Z,39.71
2023-03-11T19:45:22.292Z,39.69
2023-03-11T19:46:22.415Z,39.70
2023-03-11T19:47:22.322Z,39.74
2023-03-11T19:48:22.351Z,39.68
2023-03-11T19:49:22.356Z,39.68
2023-03-11T19:50:22.367Z,39.70
2023-03-11T19:51:22.406Z,39.64
2023-03-11T19:52:22.431Z,39.65
2023-03-11T19:53:22.421Z,39.68
2023-03-11T19:54:22.500Z,39.65
2023-03-11T19:55:23.258Z,39.65
2023-03-11T19:56:22.483Z,39.64
2023-03-11T19:57:22.518Z,39.65
2023-03-11T19:58:22.482Z,39.66
2023-03-11T19:59:22.505Z,39.66
2023-03-11T20:00:22.523Z,39.66
2023-03-11T20:01:22.605Z,39.65
2023-03-11T20:02:22.621Z,39.72
2023-03-11T20:03:22.603Z,39.63
2023-03-11T20:04:22.671Z,39.64
2023-03-11T20:05:22.671Z,39.65
2023-03-11T20:06:22.773Z,39.60
2023-03-11T20:07:22.717Z,39.60
2023-03-11T20:08:22.741Z,39.59
2023-03-11T20:09:22.753Z,39.60
2023-03-11T20:10:22.771Z,39.66
2023-03-11T20:11:22.813Z,39.61
2023-03-11T20:12:22.830Z,39.65
2023-03-11T20:13:22.983Z,39.58
2023-03-11T20:14:22.980Z,39.63
2023-03-11T20:15:22.963Z,39.61
2023-03-11T20:16:22.953Z,39.61
2023-03-11T20:17:22.940Z,39.60
2023-03-11T20:18:22.968Z,39.58
2023-03-11T20:19:23.038Z,39.61
2023-03-11T21:29:24.956Z,39.49
2023-03-11T21:30:24.930Z,39.46
2023-03-11T21:31:27.190Z,39.37
2023-03-11T21:32:25.130Z,39.36
2023-03-11T21:33:25.133Z,39.40
2023-03-11T21:35:25.104Z,39.31
2023-03-11T21:37:25.178Z,39.37
2023-03-11T21:38:25.226Z,39.41
2023-03-11T21:39:25.160Z,39.36
2023-03-11T21:40:25.300Z,39.42
2023-03-11T21:41:25.253Z,39.40
2023-03-11T21:42:25.293Z,39.35
2023-03-11T21:43:25.373Z,39.35
2023-03-11T21:44:25.282Z,39.35
2023-03-11T21:45:25.384Z,39.37
2023-03-11T21:46:25.528Z,39.31
2023-03-11T21:47:25.401Z,39.30
2023-03-11T21:48:25.417Z,39.30
2023-03-11T21:49:25.511Z,39.32
2023-03-11T21:50:25.491Z,39.36
2023-03-11T21:51:25.515Z,39.38
2023-03-11T21:52:25.524Z,39.34
2023-03-11T21:53:25.675Z,39.32
2023-03-11T21:54:25.635Z,39.32
2023-03-11T21:55:25.623Z,39.36
2023-03-11T21:56:25.766Z,39.38
2023-03-11T21:57:25.781Z,39.31
2023-03-11T21:58:25.875Z,39.33
2023-03-11T21:59:26.088Z,39.34
2023-03-11T22:00:25.860Z,39.30
2023-03-11T22:01:25.982Z,39.36
2023-03-11T22:02:25.841Z,39.27
2023-03-11T22:03:26.171Z,39.27
2023-03-11T22:04:25.927Z,39.31
2023-03-11T22:05:25.946Z,39.28
2023-03-11T22:06:26.041Z,39.32
2023-03-11T22:07:26.111Z,39.29
2023-03-11T22:08:26.060Z,39.29
2023-03-11T22:09:26.311Z,39.32
2023-03-11T22:10:26.208Z,39.33
2023-03-11T22:11:26.134Z,39.29
2023-03-11T22:12:26.870Z,39.30
2023-03-11T22:13:26.148Z,39.26
2023-03-11T22:14:26.364Z,39.29
2023-03-11T22:15:26.284Z,39.29
2023-03-11T22:16:26.286Z,39.27
2023-03-11T22:17:26.474Z,39.32
2023-03-11T22:18:26.350Z,39.32
2023-03-11T22:19:26.316Z,39.31
2023-03-11T22:20:26.344Z,39.29
2023-03-11T22:21:26.476Z,39.32
2023-03-11T22:22:26.496Z,39.31
2023-03-11T22:23:26.453Z,39.29
2023-03-11T22:24:26.503Z,39.33
2023-03-11T22:25:26.553Z,39.31
2023-03-11T22:26:26.631Z,39.33
2023-03-11T22:27:26.695Z,39.29
2023-03-11T22:28:26.750Z,39.30
2023-03-11T22:29:26.810Z,39.28
2023-03-11T22:30:26.882Z,39.28
2023-03-11T22:31:26.951Z,39.27
2023-03-11T22:32:27.009Z,39.27
2023-03-11T22:33:27.009Z,39.26
2023-03-11T22:34:27.036Z,39.21
2023-03-11T22:35:27.097Z,39.32
2023-03-11T22:36:27.120Z,39.28
2023-03-11T22:37:27.146Z,39.32
2023-03-11T22:38:27.198Z,39.26
2023-03-11T22:39:27.255Z,39.23
2023-03-11T22:40:27.325Z,39.25
2023-03-11T22:41:27.346Z,39.26
2023-03-11T22:42:27.401Z,39.27
2023-03-11T22:43:27.456Z,39.29
2023-03-11T22:44:27.490Z,39.22
2023-03-11T22:45:27.555Z,39.21
2023-03-11T22:46:27.761Z,39.20
2023-03-11T22:47:27.815Z,39.22
2023-03-11T22:48:27.801Z,39.15
2023-03-11T22:49:27.839Z,39.12
2023-03-11T22:50:27.904Z,39.16
2023-03-11T22:51:27.944Z,39.16
2023-03-11T22:52:27.986Z,39.21
2023-03-11T22:53:28.029Z,39.15
2023-03-11T22:54:28.086Z,39.22
2023-03-11T22:55:28.080Z,39.22
2023-03-11T22:56:28.138Z,39.17
2023-03-11T22:57:28.162Z,39.18
2023-03-11T22:59:28.229Z,39.20
2023-03-11T23:00:28.256Z,39.21
2023-03-11T23:01:28.296Z,39.23
2023-03-11T23:02:28.319Z,39.20
2023-03-11T23:03:28.381Z,39.18
2023-03-11T23:04:28.387Z,39.22
2023-03-11T23:05:28.430Z,39.18
2023-03-11T23:06:28.460Z,39.20
2023-03-11T23:07:28.483Z,39.22
2023-03-11T23:08:28.518Z,39.22
2023-03-11T23:09:28.551Z,39.17
2023-03-11T23:10:28.599Z,39.18
2023-03-11T23:11:28.635Z,39.12
2023-03-11T23:12:28.673Z,39.15
2023-03-11T23:13:28.695Z,39.17
2023-03-11T23:14:43.578Z,39.18
2023-03-11T23:15:29.770Z,39.25
2023-03-11T23:16:29.385Z,39.21
2023-03-11T23:17:28.824Z,39.20
2023-03-11T23:18:28.892Z,39.17
2023-03-11T23:19:28.950Z,39.13
2023-03-11T23:20:28.904Z,39.15
2023-03-11T23:21:28.961Z,39.20
2023-03-11T23:22:28.957Z,39.13
2023-03-11T23:23:28.982Z,39.17
2023-03-11T23:24:29.005Z,39.16
2023-03-11T23:25:29.028Z,39.17
2023-03-11T23:26:29.056Z,39.19
2023-03-11T23:27:29.095Z,39.15
2023-03-11T23:28:29.103Z,39.20
2023-03-11T23:29:29.116Z,39.16
2023-03-11T23:30:29.154Z,39.18
2023-03-11T23:31:29.247Z,39.17
2023-03-11T23:32:29.288Z,39.20
2023-03-11T23:33:29.197Z,39.18
2023-03-11T23:34:29.227Z,39.17
2023-03-11T23:35:29.842Z,39.17
2023-03-11T23:36:29.296Z,39.16
2023-03-11T23:37:29.291Z,39.18
2023-03-11T23:38:29.323Z,39.20
2023-03-11T23:39:29.354Z,39.17
2023-03-11T23:40:29.380Z,39.13
2023-03-11T23:41:29.439Z,39.14
2023-03-11T23:42:29.424Z,39.21
2023-03-11T23:43:29.463Z,39.17
2023-03-11T23:44:29.502Z,39.24
2023-03-11T23:45:29.574Z,39.18
2023-03-11T23:46:29.659Z,39.17
2023-03-11T23:47:29.619Z,39.20
2023-03-11T23:48:29.653Z,39.21
2023-03-11T23:49:29.694Z,39.23
2023-03-11T23:50:29.710Z,39.23
2023-03-11T23:51:29.749Z,39.20
2023-03-11T23:52:29.780Z,39.23
2023-03-11T23:53:29.833Z,39.27
2023-03-11T23:54:29.845Z,39.22
2023-03-11T23:55:29.886Z,39.26
2023-03-11T23:56:29.926Z,39.24
2023-03-11T23:57:30.027Z,39.22
2023-03-11T23:58:29.979Z,39.22
2023-03-11T23:59:30.017Z,39.22
